首页
METAR-TAF:

METAR-TAF

机场 :

安特衛普國際機場

安特卫普, 比利时

纬度: 51-12N, 经度: 004-28E, 海拔: 12米

当前天气观测

该预报发布于49分钟前的15:50 UTC
风速17节,风向西北,有时为27节阵风
温度 10°C
湿度 82%
气压 996 hPa
能见度10公里或以上
少量云层高于1700英尺, 塔状积云.
散云层高于3500英尺
小阵雨

METAR: EBAW 051550Z 31017G27KT 9999 -SHRA FEW017TCU SCT035 10/07 Q0996 NOSIG

时间: 18:39 (16:39 UTC)

预报

该预报发布于2小时和19分钟前的14:20 UTC
预报有效从05日的 15点(UTC)到 05日的 24点(UTC)
风速14节,风向西转西北
能见度10公里或以上
散云层高于1400英尺
多云层高于3000英尺
短暂存在
从 05日的 15点(UTC)到 05日的 20点(UTC)
风速17节,风向西转西北,有时为28节阵风
能見度: 3500
多云层高于1200英尺, 积雨云.
阵雨
几率 30% :
短暂存在
从 05日的 15点(UTC)到 05日的 18点(UTC)
能見度: 2500
雷暴, 雨
成为
从 05日的 18点(UTC)到 05日的 20点(UTC)
风速9节,风向西南
几率 30% :
短暂存在
从 05日的 20点(UTC)到 05日的 24点(UTC)
能見度: 4500
阵雨

TAF: EBAW 051420Z 0515/0524 29014KT 9999 SCT014 BKN030 TEMPO 0515/0520 29017G28KT 3500 SHRA BKN012CB PROB30 TEMPO 0515/0518 2500 TSRA BECMG 0518/0520 23009KT PROB30 TEMPO 0520/0524 4500 SHRA

超过4000个机场的气象观测和天气预报(METAR&TAF报告)。

可查询的气象台以黄色和红色小点在地图上表示。

将鼠标移到小点上方,可查看气象台名称。

然后点击查看天气观测和预报。

如需切换地图:点击带黑十字的绿色按钮放大地图;点击带横线的绿色按钮缩小地图;或者点击绿色箭头查看邻近地区的地图。


METAR-TAF: